Time;durP1;ratioP1;P1;durP2;ratioP2;P2;SDS_P1;SDS_P2;PMS_P1;PMS_P2;Temp;Humidity;BMP_temperature;BMP_pressure;BME280_temperature;BME280_humidity;BME280_pressure;Samples;Min_cycle;Max_cycle;Signal;HPM_P1;HPM_P2
2021/12/14 00:01:54;;;;;;;164.07;79.90;;;;;;;3.77;79.07;101381.58;2091902;84;33153;-59
2021/12/14 00:05:01;;;;;;;161.82;79.35;;;;;;;3.77;79.26;101382.47;2077303;84;29692;-60
2021/12/14 00:08:05;;;;;;;157.25;79.97;;;;;;;3.80;79.29;101382.89;2075712;84;27791;-64
2021/12/14 00:17:26;;;;;;;153.02;76.82;;;;;;;3.86;79.34;101386.86;2069004;86;33346;-66
2021/12/14 00:20:37;;;;;;;155.65;77.40;;;;;;;3.87;79.22;101388.63;2198762;80;29639;-61
2021/12/14 00:27:06;;;;;;;153.18;76.65;;;;;;;3.89;79.26;101376.21;2183245;81;28918;-69
2021/12/14 00:30:10;;;;;;;148.62;73.67;;;;;;;3.88;79.20;101376.23;2183365;81;31352;-68
2021/12/14 00:33:15;;;;;;;153.87;74.03;;;;;;;3.90;79.28;101375.78;2183513;81;33158;-68
2021/12/14 00:36:18;;;;;;;153.15;75.78;;;;;;;3.90;79.31;101387.25;2183437;81;30590;-69
2021/12/14 00:39:20;;;;;;;158.42;75.08;;;;;;;3.90;79.32;101391.23;2183507;81;27677;-70
2021/12/14 00:42:23;;;;;;;150.82;74.37;;;;;;;3.91;79.35;101393.45;2183338;81;29499;-69
2021/12/14 00:45:28;;;;;;;151.20;70.28;;;;;;;3.93;79.35;101392.55;2206648;80;31376;-69
2021/12/14 00:48:30;;;;;;;152.07;72.82;;;;;;;3.94;79.37;101390.34;2206614;80;33026;-69
2021/12/14 00:51:32;;;;;;;152.97;72.30;;;;;;;3.95;79.40;101387.26;2206377;80;30239;-69
2021/12/14 00:54:36;;;;;;;161.52;74.25;;;;;;;3.96;79.44;101389.02;2195392;81;27581;-67
2021/12/14 00:57:38;;;;;;;160.93;76.72;;;;;;;3.98;79.42;101391.66;2172471;81;29165;-68
2021/12/14 01:00:51;;;;;;;160.15;73.37;;;;;;;3.97;79.43;101392.11;2196959;81;31479;-69
2021/12/14 01:03:58;;;;;;;155.78;72.58;;;;;;;3.99;79.50;101390.77;2195215;81;33220;-66
2021/12/14 01:07:01;;;;;;;161.85;72.35;;;;;;;4.00;79.41;101399.16;2197068;81;29643;-69
2021/12/14 01:10:09;;;;;;;147.70;72.37;;;;;;;4.00;79.45;101402.67;2185481;81;27686;-69
2021/12/14 01:13:11;;;;;;;155.07;72.10;;;;;;;4.01;79.44;101399.60;2170502;81;28830;-69
2021/12/14 01:16:32;;;;;;;160.32;73.72;;;;;;;4.01;79.44;101399.60;2196871;81;30769;-63
2021/12/14 01:19:29;;;;;;;165.45;76.77;;;;;;;3.99;79.49;101404.89;2193902;81;33057;-66
2021/12/14 01:25:38;;;;;;;168.47;77.72;;;;;;;4.01;79.53;101396.95;2197288;81;28162;-70
2021/12/14 01:28:42;;;;;;;165.55;76.77;;;;;;;4.00;79.54;101396.51;2196754;81;28702;-69
2021/12/14 01:31:48;;;;;;;175.15;75.60;;;;;;;4.00;79.55;101400.48;2197133;81;31719;-69
2021/12/14 01:34:50;;;;;;;167.55;74.27;;;;;;;4.02;79.58;101402.69;2196914;81;32398;-69
2021/12/14 01:38:02;;;;;;;159.03;73.20;;;;;;;4.02;79.62;101395.60;2197119;81;30007;-69
2021/12/14 01:41:10;;;;;;;144.45;70.05;;;;;;;4.02;79.56;101404.02;2197135;81;27550;-69
2021/12/14 01:44:13;;;;;;;157.43;69.07;;;;;;;4.03;79.60;101402.67;2196484;81;30017;-68
2021/12/14 01:47:22;;;;;;;150.45;72.75;;;;;;;4.03;79.62;101396.05;2197090;81;30578;-69
2021/12/14 01:50:38;;;;;;;154.05;70.12;;;;;;;4.05;79.59;101399.57;2196495;81;33391;-69
2021/12/14 01:53:42;;;;;;;;;;;;;;;4.05;79.61;101399.57;2199148;81;29894;-69
2021/12/14 01:56:44;;;;;;;148.02;68.17;;;;;;;4.05;79.63;101397.38;2210207;80;28105;-69
2021/12/14 01:59:49;;;;;;;151.68;68.42;;;;;;;4.02;79.62;101386.32;2210223;80;29097;-68
2021/12/14 02:02:51;;;;;;;168.30;72.70;;;;;;;4.04;79.69;101390.31;2209926;80;31900;-70
2021/12/14 02:05:53;;;;;;;155.90;71.90;;;;;;;4.03;79.73;101385.44;2181906;80;33318;-70
2021/12/14 02:09:03;;;;;;;180.27;77.60;;;;;;;4.05;79.69;101390.75;2209881;80;29443;-70
2021/12/14 02:12:19;;;;;;;167.22;76.85;;;;;;;4.05;79.71;101390.29;2190990;81;27674;-69
2021/12/14 02:15:29;;;;;;;157.07;73.40;;;;;;;4.03;79.73;101384.56;2195280;80;29739;-69
2021/12/14 02:18:31;;;;;;;165.68;72.37;;;;;;;4.03;79.75;101392.52;2221974;80;31892;-68
2021/12/14 02:21:34;;;;;;;165.07;76.57;;;;;;;4.03;79.83;101381.92;2222871;80;34165;-69
2021/12/14 02:24:40;;;;;;;164.60;73.97;;;;;;;3.99;79.68;101388.12;2223272;80;30552;-69
2021/12/14 02:27:46;;;;;;;162.68;72.78;;;;;;;3.97;79.73;101384.59;2223324;80;27661;-69
2021/12/14 02:30:52;;;;;;;172.80;80.75;;;;;;;3.97;79.90;101385.48;2223525;80;28902;-68
2021/12/14 02:33:56;;;;;;;165.82;78.87;;;;;;;3.98;79.86;101385.89;2223235;80;31174;-68
2021/12/14 02:36:58;;;;;;;135.05;60.73;;;;;;;3.99;79.91;101378.38;2223522;80;33620;-69
2021/12/14 02:40:15;;;;;;;173.15;73.62;;;;;;;3.98;79.78;101378.39;2222926;80;30473;-70
2021/12/14 02:43:11;;;;;;;152.02;69.53;;;;;;;3.96;79.77;101378.42;2220223;80;27658;-69
2021/12/14 02:46:21;;;;;;;150.45;69.97;;;;;;;3.97;79.81;101381.94;2223318;80;29050;-68
2021/12/14 02:49:27;;;;;;;138.22;66.00;;;;;;;3.97;79.80;101382.84;2195412;80;31102;-69
2021/12/14 02:52:35;;;;;;;142.13;67.05;;;;;;;3.97;79.74;101372.66;2195276;81;32962;-69
2021/12/14 02:55:35;;;;;;;142.95;67.65;;;;;;;3.98;79.73;101378.39;2195141;81;29657;-70
2021/12/14 02:58:37;;;;;;;145.10;69.12;;;;;;;3.98;79.77;101375.29;2195432;80;27649;-67
2021/12/14 03:01:42;;;;;;;140.88;67.27;;;;;;;3.99;79.84;101371.75;2194826;80;29899;-69
2021/12/14 03:04:52;;;;;;;148.50;69.20;;;;;;;4.01;79.79;101367.32;2195230;80;32226;-69
2021/12/14 03:08:08;;;;;;;142.62;66.65;;;;;;;3.97;79.63;101365.60;2193593;81;33151;-70
2021/12/14 03:11:14;;;;;;;160.28;70.95;;;;;;;3.97;79.67;101364.70;2170334;81;29693;-71
2021/12/14 03:14:16;;;;;;;164.62;70.45;;;;;;;3.95;79.59;101359.42;2195501;81;27616;-65
2021/12/14 03:17:18;;;;;;;151.00;68.75;;;;;;;3.90;79.65;101362.06;2184399;80;29328;-66
2021/12/14 03:20:31;;;;;;;145.25;64.87;;;;;;;3.90;79.72;101366.51;2206695;80;31227;-69
2021/12/14 03:23:47;;;;;;;140.37;65.45;;;;;;;3.91;79.84;101370.92;2206464;80;32883;-67
2021/12/14 03:26:52;;;;;;;141.20;65.28;;;;;;;3.92;79.85;101373.55;2197068;81;29577;-71
2021/12/14 03:29:54;;;;;;;141.57;65.05;;;;;;;3.90;79.75;101370.48;2183136;81;28207;-71
2021/12/14 03:33:07;;;;;;;148.55;67.45;;;;;;;3.89;79.80;101370.05;2183406;81;29062;-71
2021/12/14 03:36:17;;;;;;;145.82;66.33;;;;;;;3.89;79.83;101364.28;2151794;82;31739;-71
2021/12/14 03:39:24;;;;;;;155.60;67.60;;;;;;;3.87;79.71;101368.73;2190148;80;32953;-71
2021/12/14 03:42:37;;;;;;;145.57;68.85;;;;;;;3.85;79.74;101365.64;2169631;82;29688;-71
2021/12/14 03:45:40;;;;;;;140.07;66.53;;;;;;;3.86;79.83;101367.40;2192240;81;27714;-69
2021/12/14 03:48:42;;;;;;;150.20;69.55;;;;;;;3.84;79.87;101357.24;2197584;80;29069;-69
2021/12/14 03:51:47;;;;;;;157.15;67.22;;;;;;;3.86;79.86;101362.09;2189428;81;31889;-69
2021/12/14 03:54:49;;;;;;;130.40;63.83;;;;;;;3.83;79.68;101360.78;2190802;81;33014;-70
2021/12/14 03:57:53;;;;;;;135.28;63.15;;;;;;;3.83;79.83;101359.45;2189300;81;30886;-70
2021/12/14 04:00:59;;;;;;;132.87;63.90;;;;;;;3.83;79.88;101359.03;2190045;81;27794;-69
2021/12/14 04:04:10;;;;;;;131.27;63.87;;;;;;;3.83;79.80;101361.68;2189744;81;29032;-63
2021/12/14 04:07:13;;;;;;;139.05;64.77;;;;;;;3.83;79.85;101362.11;2112846;84;31034;-68
2021/12/14 04:10:23;;;;;;;132.27;62.62;;;;;;;3.83;79.82;101361.68;2113571;84;33624;-63
2021/12/14 04:13:31;;;;;;;144.47;65.65;;;;;;;3.84;79.79;101363.88;2112345;84;29693;-66
2021/12/14 04:16:32;;;;;;;125.00;61.40;;;;;;;3.84;79.83;101361.22;2068221;85;27741;-63
2021/12/14 04:19:36;;;;;;;127.80;62.30;;;;;;;3.84;79.88;101358.57;2068373;86;29108;-65
2021/12/14 04:22:38;;;;;;;129.60;60.55;;;;;;;3.85;79.85;101355.94;2068500;86;31056;-68
2021/12/14 04:25:41;;;;;;;123.30;59.48;;;;;;;3.86;79.89;101348.84;2068302;86;33938;-70
2021/12/14 04:28:48;;;;;;;134.32;60.67;;;;;;;3.88;79.87;101350.62;2068409;86;29683;-68
2021/12/14 04:31:51;;;;;;;128.32;58.73;;;;;;;3.89;79.86;101352.35;2068540;86;27738;-71
2021/12/14 04:34:56;;;;;;;120.60;57.10;;;;;;;3.90;79.82;101351.92;2068526;86;28682;-71
2021/12/14 04:38:04;;;;;;;118.87;55.63;;;;;;;3.88;79.73;101340.44;2068787;86;31083;-73
2021/12/14 04:54:13;;;;;;;105.52;51.77;;;;;;;3.84;79.94;101331.63;2206845;80;32457;-72
2021/12/14 04:57:29;;;;;;;106.35;49.75;;;;;;;3.86;80.00;101326.31;2206242;79;34106;-71
2021/12/14 05:00:38;;;;;;;108.78;49.40;;;;;;;3.85;79.98;101324.13;2197189;81;29993;-70
2021/12/14 05:03:51;;;;;;;98.35;48.40;;;;;;;3.88;80.04;101325.44;2183771;81;27640;-73
2021/12/14 05:07:03;;;;;;;102.85;49.58;;;;;;;3.88;80.09;101317.48;2183873;81;27902;-71
2021/12/14 05:10:03;;;;;;;89.62;45.92;;;;;;;3.92;80.12;101322.31;2182083;81;31017;-73
2021/12/14 05:13:05;;;;;;;104.25;50.98;;;;;;;3.92;80.08;101328.48;2183657;81;32717;-72
2021/12/14 05:16:08;;;;;;;102.45;50.92;;;;;;;3.94;80.07;101327.17;2183351;81;30402;-72
2021/12/14 05:19:12;;;;;;;100.70;46.88;;;;;;;3.96;80.10;101326.72;2183640;81;27917;-73
2021/12/14 05:22:21;;;;;;;100.58;48.68;;;;;;;3.99;80.06;101331.98;2183611;81;29068;-73
2021/12/14 05:25:27;;;;;;;109.05;51.92;;;;;;;3.99;80.07;101329.33;2183658;81;31094;-72
2021/12/14 05:28:32;;;;;;;104.03;48.83;;;;;;;4.01;80.03;101334.18;2025470;86;28915;-70
2021/12/14 05:31:34;;;;;;;102.12;49.98;;;;;;;4.02;80.04;101327.98;2025367;87;30683;-72
2021/12/14 05:34:38;;;;;;;106.32;51.92;;;;;;;4.03;79.98;101323.59;2003788;87;28434;-71
2021/12/14 05:37:50;;;;;;;111.68;53.35;;;;;;;4.04;79.97;101322.70;2025556;87;29497;-71
2021/12/14 05:43:52;;;;;;;107.72;51.77;;;;;;;4.04;79.90;101322.23;2025429;87;33571;-71
2021/12/14 05:46:58;;;;;;;110.60;52.98;;;;;;;4.04;79.94;101327.54;2025401;87;30044;-72
2021/12/14 05:50:00;;;;;;;108.57;52.75;;;;;;;4.03;79.92;101320.48;2003696;87;27751;-71
2021/12/14 05:53:04;;;;;;;103.27;52.78;;;;;;;4.04;79.98;101310.77;2025286;87;29539;-72
2021/12/14 05:56:23;;;;;;;106.07;49.90;;;;;;;4.05;79.97;101315.18;2025559;87;31045;-71
2021/12/14 05:59:29;;;;;;;101.60;50.78;;;;;;;4.05;80.01;101308.09;2111394;81;33064;-71
2021/12/14 06:02:31;;;;;;;101.80;50.38;;;;;;;4.08;80.05;101311.16;2183916;81;30156;-73
2021/12/14 06:05:32;;;;;;;99.28;49.77;;;;;;;4.09;79.99;101307.19;2183449;81;28292;-72
2021/12/14 06:08:35;;;;;;;101.55;48.75;;;;;;;4.10;80.00;101312.94;2183593;81;29319;-72
2021/12/14 06:11:38;;;;;;;104.75;49.53;;;;;;;4.10;79.96;101304.97;2183466;81;31032;-71
2021/12/14 06:14:49;;;;;;;97.02;49.90;;;;;;;4.12;79.97;101308.06;2183453;81;33901;-67
2021/12/14 06:17:46;;;;;;;100.67;50.35;;;;;;;4.12;79.92;101306.28;2181684;81;29633;-72
2021/12/14 06:20:47;;;;;;;98.10;49.55;;;;;;;4.13;79.98;101303.20;2183433;81;27773;-71
2021/12/14 06:24:05;;;;;;;105.43;51.37;;;;;;;4.13;80.01;101309.37;2183310;81;32843;-70
2021/12/14 06:27:11;;;;;;;97.82;49.18;;;;;;;4.15;79.99;101309.34;2183306;80;32224;-71
2021/12/14 06:30:21;;;;;;;94.32;48.35;;;;;;;4.17;80.04;101311.12;2182952;81;33315;-63
2021/12/14 06:33:28;;;;;;;110.95;51.85;;;;;;;4.17;79.99;101311.55;2183661;81;29733;-67
2021/12/14 06:37:04;;;;;;;103.90;49.98;;;;;;;4.18;80.04;101302.27;2183149;81;27732;-60
2021/12/14 06:40:19;;;;;;;103.60;50.78;;;;;;;4.20;80.00;101300.49;2134447;83;29108;-61
2021/12/14 06:43:32;;;;;;;113.68;50.30;;;;;;;4.21;80.01;101302.26;2150633;82;31467;-60
2021/12/14 06:46:37;;;;;;;112.30;51.75;;;;;;;4.22;79.99;101307.97;2150143;82;33492;-70
2021/12/14 06:49:39;;;;;;;;;;;;;;;4.22;80.00;101307.09;2153635;82;30514;-70
2021/12/14 06:52:41;;;;;;;114.42;53.55;;;;;;;4.21;79.93;101312.86;2151039;82;27814;-70
2021/12/14 06:55:48;;;;;;;117.30;52.00;;;;;;;4.20;79.95;101315.08;2127681;83;29921;-71
2021/12/14 06:58:58;;;;;;;115.45;52.98;;;;;;;4.21;80.02;101316.84;2127502;83;32346;-71
2021/12/14 07:02:05;;;;;;;116.93;52.05;;;;;;;4.23;80.04;101316.36;2127856;83;32792;-69
2021/12/14 07:05:08;;;;;;;112.85;53.50;;;;;;;4.22;79.98;101319.90;2127882;83;29992;-65
2021/12/14 07:08:22;;;;;;;116.60;52.23;;;;;;;4.23;80.07;101313.70;2150944;82;27649;-68
2021/12/14 07:11:24;;;;;;;118.15;49.08;;;;;;;4.20;79.87;101312.86;2150354;82;29910;-64
2021/12/14 07:14:42;;;;;;;120.47;53.63;;;;;;;4.17;79.93;101302.27;2127836;83;31103;-63
2021/12/14 07:17:59;;;;;;;110.15;51.75;;;;;;;4.17;80.09;101302.27;2201915;80;34164;-71
2021/12/14 07:20:56;;;;;;;123.00;52.50;;;;;;;4.18;80.08;101304.02;2216431;80;29599;-66
2021/12/14 07:23:58;;;;;;;142.13;54.67;;;;;;;4.19;80.04;101307.11;2217920;80;28106;-65
2021/12/14 07:27:23;;;;;;;121.45;54.70;;;;;;;4.16;79.99;101308.45;2217728;80;29538;-65
2021/12/14 07:30:51;;;;;;;93.13;40.90;;;;;;;4.12;79.96;101297.45;2218376;80;32019;-70
2021/12/14 07:33:58;;;;;;;137.32;56.63;;;;;;;4.07;79.97;101302.77;2197615;80;33756;-66
2021/12/14 07:37:00;;;;;;;144.70;55.45;;;;;;;4.02;79.94;101297.96;2159494;82;29692;-69
2021/12/14 07:40:02;;;;;;;143.00;56.95;;;;;;;4.02;80.04;101297.96;2136460;83;28178;-71
2021/12/14 07:43:13;;;;;;;130.57;55.75;;;;;;;4.01;80.10;101297.52;2140972;82;29918;-66
2021/12/14 07:46:20;;;;;;;133.27;56.92;;;;;;;4.03;80.28;101313.84;2217778;80;31926;-68
2021/12/14 07:49:35;;;;;;;138.85;55.92;;;;;;;4.07;80.39;101308.97;2217615;80;33144;-62
2021/12/14 07:52:37;;;;;;;;;;;;;;;4.08;80.35;101305.42;2219425;80;30832;-66
2021/12/14 07:55:44;;;;;;;146.95;52.75;;;;;;;4.13;80.50;101312.48;2159627;82;27621;-65
2021/12/14 07:58:48;;;;;;;126.35;53.02;;;;;;;4.15;80.52;101308.92;2189790;80;29049;-69
2021/12/14 08:02:07;;;;;;;131.82;52.98;;;;;;;4.16;80.34;101316.41;2194878;80;31054;-69
2021/12/14 08:05:22;;;;;;;133.87;54.80;;;;;;;4.19;80.49;101313.74;2178766;81;32962;-70
2021/12/14 08:08:33;;;;;;;125.70;53.57;;;;;;;4.21;80.43;101307.98;2160048;80;29694;-65
2021/12/14 08:14:38;;;;;;;119.80;54.33;;;;;;;4.28;80.45;101318.11;2161576;82;28477;-70
2021/12/14 08:17:43;;;;;;;123.72;54.08;;;;;;;4.33;80.38;101325.14;2162558;81;31908;-64
2021/12/14 08:21:04;;;;;;;135.27;55.13;;;;;;;4.37;80.44;101318.05;2120735;84;33860;-62
2021/12/14 08:24:07;;;;;;;124.72;55.40;;;;;;;4.44;80.48;101319.75;2149581;82;30008;-63
2021/12/14 08:27:09;;;;;;;132.47;55.08;;;;;;;4.49;80.40;101325.02;2150292;82;27709;-59
2021/12/14 08:30:16;;;;;;;124.12;57.10;;;;;;;4.53;80.38;101324.11;2149698;82;29372;-61
2021/12/14 08:33:22;;;;;;;114.35;54.48;;;;;;;4.58;80.36;101328.94;2149917;82;32167;-61
2021/12/14 08:36:40;;;;;;;128.25;55.10;;;;;;;4.62;80.35;101328.03;2150008;82;32981;-62
2021/12/14 08:39:49;;;;;;;131.12;60.75;;;;;;;4.68;80.35;101328.42;2149901;82;29817;-65
2021/12/14 08:43:03;;;;;;;121.40;55.95;;;;;;;4.71;80.23;101325.75;2150035;82;27531;-66
2021/12/14 08:46:11;;;;;;;118.53;51.55;;;;;;;4.75;80.30;101328.78;2149472;82;28894;-64
2021/12/14 08:49:15;;;;;;;121.92;53.33;;;;;;;4.78;80.24;101318.14;2149762;82;31893;-60
2021/12/14 08:52:17;;;;;;;98.40;42.15;;;;;;;4.83;80.27;101319.42;2149942;82;33411;-63
2021/12/14 08:55:22;;;;;;;121.95;52.98;;;;;;;4.86;80.21;101317.64;2149778;82;30803;-62
2021/12/14 08:58:26;;;;;;;97.97;46.85;;;;;;;4.91;80.20;101316.27;2150294;82;27688;-61
2021/12/14 09:01:31;;;;;;;130.32;54.35;;;;;;;4.93;80.17;101313.15;2149981;82;28667;-64
2021/12/14 09:04:56;;;;;;;131.80;58.73;;;;;;;4.93;79.99;101310.92;2150255;82;31264;-60
2021/12/14 09:07:58;;;;;;;134.18;58.33;;;;;;;4.95;79.92;101307.81;2149868;82;34351;-61
2021/12/14 09:11:05;;;;;;;130.70;59.25;;;;;;;4.92;79.88;101306.08;2149986;82;30205;-60
2021/12/14 09:14:11;;;;;;;126.00;58.20;;;;;;;4.94;79.93;101312.25;2146337;82;27754;-61
2021/12/14 09:17:22;;;;;;;137.72;61.45;;;;;;;4.95;79.93;101303.40;2159472;81;28510;-68
2021/12/14 09:20:35;;;;;;;152.45;58.83;;;;;;;4.97;79.85;101303.37;2187785;81;32122;-65
2021/12/14 09:23:42;;;;;;;139.05;61.33;;;;;;;5.00;79.79;101304.67;2187368;81;33656;-62
2021/12/14 09:26:48;;;;;;;135.10;58.13;;;;;;;4.98;79.72;101300.69;2187571;81;29770;-60
2021/12/14 09:29:52;;;;;;;134.78;58.05;;;;;;;5.01;79.78;101297.14;2187828;81;27691;-61
2021/12/14 09:32:54;;;;;;;138.30;59.23;;;;;;;5.03;79.74;101296.67;2188236;81;29483;-61
2021/12/14 09:35:58;;;;;;;144.60;63.15;;;;;;;5.05;79.77;101292.20;2187599;81;31429;-60
2021/12/14 09:39:14;;;;;;;153.45;61.48;;;;;;;5.06;79.70;101291.77;2187502;81;34129;-61
2021/12/14 09:42:21;;;;;;;147.93;61.60;;;;;;;5.07;79.59;101287.75;2187255;81;31062;-63
2021/12/14 09:45:33;;;;;;;133.57;59.35;;;;;;;5.04;79.58;101293.56;2187733;81;27606;-60
2021/12/14 09:48:42;;;;;;;138.03;62.25;;;;;;;5.05;79.62;101296.65;2187269;81;28757;-60
2021/12/14 09:51:51;;;;;;;155.60;62.70;;;;;;;5.08;79.82;101289.52;2187653;81;31839;-63
2021/12/14 09:54:54;;;;;;;182.27;78.37;;;;;;;5.09;79.60;101283.31;2187689;81;33037;-62
2021/12/14 09:58:04;;;;;;;155.67;62.43;;;;;;;5.10;79.70;101281.09;2159366;81;30837;-60
2021/12/14 10:01:15;;;;;;;153.30;65.12;;;;;;;5.05;79.55;101280.25;2187608;81;27629;-61
2021/12/14 10:04:21;;;;;;;148.02;65.80;;;;;;;5.08;79.78;101290.84;2187541;81;29596;-61
2021/12/14 10:07:25;;;;;;;158.97;67.90;;;;;;;5.10;79.71;101285.08;2149558;82;31050;-60
2021/12/14 10:10:31;;;;;;;182.00;73.30;;;;;;;5.08;79.51;101289.98;2149882;82;32997;-61
2021/12/14 10:13:36;;;;;;;220.25;99.60;;;;;;;5.12;79.78;101294.37;2149879;82;30411;-61
2021/12/14 10:16:38;;;;;;;176.47;71.42;;;;;;;5.16;79.80;101289.00;2178153;81;27697;-62
2021/12/14 10:19:43;;;;;;;176.12;69.90;;;;;;;5.21;79.75;101286.75;2180184;81;29877;-61
2021/12/14 10:22:45;;;;;;;172.00;73.12;;;;;;;5.27;79.79;101294.63;2180312;81;31043;-61
2021/12/14 10:25:48;;;;;;;269.23;130.97;;;;;;;5.31;79.81;101297.23;2180254;81;33351;-63
2021/12/14 10:28:54;;;;;;;233.25;103.42;;;;;;;5.33;79.71;101301.21;2180184;81;30332;-62
2021/12/14 10:32:03;;;;;;;264.08;129.42;;;;;;;5.38;79.75;101298.03;2180380;81;27723;-63
2021/12/14 10:35:10;;;;;;;134.57;62.80;;;;;;;5.42;79.68;101302.88;2180179;81;28679;-64
2021/12/14 10:38:27;;;;;;;155.95;75.40;;;;;;;5.45;79.64;101298.40;2179911;81;31837;-61
2021/12/14 10:44:47;;;;;;;137.90;67.87;;;;;;;5.54;79.69;101290.77;2180109;81;30084;-68
2021/12/14 10:47:49;;;;;;;127.05;60.33;;;;;;;5.59;79.53;101291.59;2180033;81;27692;-69
2021/12/14 10:50:53;;;;;;;136.45;61.40;;;;;;;5.63;79.64;101292.42;2180340;81;28587;-68
2021/12/14 10:53:57;;;;;;;136.40;58.85;;;;;;;5.63;79.39;101283.98;2180177;81;31007;-70
2021/12/14 10:57:07;;;;;;;132.13;59.27;;;;;;;5.60;79.21;101281.39;2180405;81;32963;-72
2021/12/14 11:00:14;;;;;;;126.18;58.58;;;;;;;5.61;79.32;101281.83;2180016;81;29838;-70
2021/12/14 11:03:24;;;;;;;148.40;63.73;;;;;;;5.61;79.35;101275.17;2178525;81;27667;-64
2021/12/14 11:06:30;;;;;;;136.10;63.33;;;;;;;5.61;79.17;101263.65;2180023;81;29552;-62
2021/12/14 11:09:45;;;;;;;131.90;61.10;;;;;;;5.58;79.21;101262.35;2180095;81;32238;-63
2021/12/14 11:12:51;;;;;;;135.97;58.60;;;;;;;5.61;79.32;101265.88;2179659;81;34126;-64
2021/12/14 11:15:55;;;;;;;128.10;59.50;;;;;;;5.61;79.29;101276.51;2162867;81;29639;-63
2021/12/14 11:18:59;;;;;;;129.40;58.68;;;;;;;5.63;79.33;101278.67;2180964;81;27674;-62
2021/12/14 11:22:24;;;;;;;128.67;56.80;;;;;;;5.63;79.19;101276.01;2153917;81;28913;-62
2021/12/14 11:25:29;;;;;;;128.83;56.67;;;;;;;5.62;79.20;101272.95;2183411;81;31222;-61
2021/12/14 11:28:39;;;;;;;127.22;55.75;;;;;;;5.62;79.15;101270.73;2183447;81;33074;-61
2021/12/14 11:31:49;;;;;;;144.20;64.37;;;;;;;5.63;79.26;101277.34;2183657;81;30019;-61
2021/12/14 11:34:51;;;;;;;132.52;58.95;;;;;;;5.64;79.21;101272.92;2181893;81;27624;-62
2021/12/14 11:37:56;;;;;;;131.22;56.58;;;;;;;5.63;79.09;101265.84;2183078;81;29223;-61
2021/12/14 11:41:02;;;;;;;118.77;52.93;;;;;;;5.63;79.19;101255.20;2183685;81;31016;-61
2021/12/14 11:44:16;;;;;;;127.47;55.75;;;;;;;5.65;79.25;101256.07;2178881;81;34120;-61
2021/12/14 11:50:38;;;;;;;120.82;57.27;;;;;;;5.65;79.05;101255.17;2183556;81;28272;-63
2021/12/14 11:53:51;;;;;;;132.30;58.95;;;;;;;5.65;79.12;101251.19;2182502;81;28673;-62
2021/12/14 11:56:53;;;;;;;129.78;58.80;;;;;;;5.64;79.14;101239.69;2183690;81;30939;-73
2021/12/14 12:00:10;;;;;;;122.80;57.27;;;;;;;5.66;79.11;101240.98;2182981;81;34182;-73
2021/12/14 12:03:37;;;;;;;127.85;58.52;;;;;;;5.65;79.15;101238.79;2183455;81;29643;-70
2021/12/14 12:10:03;;;;;;;139.03;60.65;;;;;;;5.71;79.14;101241.81;2183460;81;29058;-62
2021/12/14 12:13:07;;;;;;;128.72;58.85;;;;;;;5.72;79.20;101234.27;2183225;81;32288;-62
2021/12/14 12:16:18;;;;;;;143.55;62.15;;;;;;;5.72;79.14;101236.92;2183540;81;33391;-61
2021/12/14 12:19:25;;;;;;;132.35;61.05;;;;;;;5.73;79.12;101240.02;2184272;81;30390;-60
2021/12/14 12:22:41;;;;;;;131.35;62.48;;;;;;;5.74;79.15;101231.14;2192282;80;27609;-61
2021/12/14 12:25:59;;;;;;;135.32;63.58;;;;;;;5.75;79.16;101228.44;2193666;80;30067;-63
2021/12/14 12:29:03;;;;;;;127.50;59.48;;;;;;;5.75;79.15;101228.91;2170315;81;31537;-63
2021/12/14 12:32:16;;;;;;;116.95;60.75;;;;;;;5.76;79.16;101229.34;2170808;81;34180;-61
2021/12/14 12:35:42;;;;;;;149.55;70.72;;;;;;;5.75;79.13;101220.47;2175765;81;29736;-61
2021/12/14 12:39:06;;;;;;;151.55;77.58;;;;;;;5.74;78.97;101214.72;2185982;81;27706;-60
2021/12/14 12:42:09;;;;;;;168.47;87.42;;;;;;;5.73;79.04;101219.60;2185850;81;30050;-66
2021/12/14 12:45:36;;;;;;;178.80;90.83;;;;;;;5.74;79.15;101221.36;2186272;81;31702;-66
2021/12/14 12:48:48;;;;;;;218.57;109.57;;;;;;;5.75;79.13;101217.80;2180195;81;32994;-64
2021/12/14 12:52:17;;;;;;;258.32;138.75;;;;;;;5.74;78.99;101216.52;2186440;81;29644;-62
2021/12/14 12:55:30;;;;;;;240.92;131.80;;;;;;;5.72;78.88;101223.16;2109708;84;27762;-67
2021/12/14 12:58:31;;;;;;;228.00;118.77;;;;;;;5.68;78.75;101218.81;2109445;84;43190;-62
2021/12/14 13:01:33;;;;;;;240.40;125.58;;;;;;;5.63;78.72;101221.52;2109414;84;32250;-63
2021/12/14 13:04:41;;;;;;;250.95;126.78;;;;;;;5.60;78.63;101216.27;2109201;84;34373;-61
2021/12/14 13:07:51;;;;;;;253.40;130.15;;;;;;;5.57;78.59;101217.64;2109544;84;30825;-63
2021/12/14 13:11:02;;;;;;;247.40;120.05;;;;;;;5.51;78.45;101223.02;2109463;84;27806;-62
2021/12/14 13:14:08;;;;;;;245.75;123.38;;;;;;;5.42;78.25;101225.35;2109458;84;29532;-63
2021/12/14 13:17:15;;;;;;;252.75;128.10;;;;;;;5.31;78.23;101225.48;2109514;84;31461;-61
2021/12/14 13:20:17;;;;;;;261.07;131.52;;;;;;;5.26;78.42;101237.08;2110303;82;33198;-60
2021/12/14 13:23:23;;;;;;;242.90;119.57;;;;;;;5.25;78.48;101236.64;2110631;84;30863;-61
2021/12/14 13:26:39;;;;;;;249.58;124.10;;;;;;;5.23;78.43;101241.09;2111232;84;27685;-61
2021/12/14 13:29:58;;;;;;;247.02;118.45;;;;;;;5.20;78.43;101248.66;2115090;81;28439;-61
2021/12/14 13:33:04;;;;;;;246.45;120.40;;;;;;;5.19;78.60;101251.35;2187731;81;31047;-60
2021/12/14 13:36:06;;;;;;;239.45;120.10;;;;;;;5.17;78.70;101252.25;2157114;81;33128;-61
2021/12/14 13:39:11;;;;;;;252.90;123.25;;;;;;;5.19;78.74;101247.37;2187388;81;30834;-62
2021/12/14 13:42:16;;;;;;;;;;;;;;;5.21;78.75;101258.39;2190322;81;27589;-67
2021/12/14 13:45:24;;;;;;;240.37;120.15;;;;;;;5.22;78.79;101265.89;2197511;80;29091;-71
2021/12/14 13:48:34;;;;;;;246.22;120.08;;;;;;;5.22;78.84;101259.26;2191445;81;31326;-64
2021/12/14 13:51:35;;;;;;;226.60;114.05;;;;;;;5.21;78.79;101265.50;2187130;81;33813;-68
2021/12/14 13:55:24;;;;;;;218.80;114.10;;;;;;;5.20;78.75;101273.03;2187238;81;30848;-70
2021/12/14 13:58:33;;;;;;;244.60;120.75;;;;;;;5.19;78.79;101272.14;2167894;81;27634;-60
2021/12/14 14:01:41;;;;;;;224.45;114.57;;;;;;;5.19;78.80;101264.63;2122764;82;29302;-60
2021/12/14 14:04:43;;;;;;;235.30;113.42;;;;;;;5.18;78.89;101270.38;2183793;81;31847;-60
2021/12/14 14:07:49;;;;;;;223.55;112.30;;;;;;;5.20;78.96;101266.39;2188003;81;33888;-60
2021/12/14 14:10:53;;;;;;;220.75;111.40;;;;;;;5.23;79.04;101265.00;2187767;80;29563;-61
2021/12/14 14:14:16;;;;;;;218.97;110.52;;;;;;;5.23;79.02;101268.56;2187549;81;37432;-61
2021/12/14 14:17:25;;;;;;;202.97;107.40;;;;;;;5.23;78.94;101264.57;2118023;83;29090;-59
2021/12/14 14:20:37;;;;;;;209.70;108.70;;;;;;;5.23;78.98;101259.26;2124173;83;31110;-60
2021/12/14 14:23:49;;;;;;;204.85;107.58;;;;;;;5.23;79.03;101263.24;2123902;83;33898;-60
2021/12/14 14:26:52;;;;;;;196.28;104.87;;;;;;;5.23;79.03;101261.02;2124206;83;29677;-59
2021/12/14 14:29:54;;;;;;;194.95;103.27;;;;;;;5.23;79.01;101267.23;2124199;83;27797;-62
2021/12/14 14:33:32;;;;;;;199.12;98.95;;;;;;;5.22;79.02;101269.45;2124182;83;29936;-59
2021/12/14 14:36:40;;;;;;;194.15;98.22;;;;;;;5.21;79.01;101262.38;2124093;83;32348;-68
2021/12/14 14:39:53;;;;;;;181.32;90.38;;;;;;;5.21;79.04;101266.83;2124464;83;33935;-70
2021/12/14 14:42:56;;;;;;;174.62;92.35;;;;;;;5.19;79.04;101259.32;2124030;83;30596;-61
2021/12/14 14:45:58;;;;;;;162.77;89.77;;;;;;;5.17;79.06;101257.56;2124595;83;27786;-60
2021/12/14 14:49:02;;;;;;;173.62;89.15;;;;;;;5.16;79.03;101261.55;2124335;83;29416;-62
2021/12/14 14:52:31;;;;;;;165.37;87.62;;;;;;;5.15;79.04;101252.71;2124526;83;31053;-62
2021/12/14 14:55:55;;;;;;;150.07;78.87;;;;;;;5.15;79.08;101246.50;2142745;83;33806;-62